sensor_id;sensor_type;location;lat;lon;timestamp;P1;durP1;ratioP1;P2;durP2;ratioP2
8952;SDS011;4511;50.890;8.054;2023-12-29T00:01:40;2.60;;;2.40;;
8952;SDS011;4511;50.890;8.054;2023-12-29T00:04:07;2.57;;;2.10;;
8952;SDS011;4511;50.890;8.054;2023-12-29T00:06:33;2.60;;;2.40;;
8952;SDS011;4511;50.890;8.054;2023-12-29T00:09:04;2.97;;;2.33;;
8952;SDS011;4511;50.890;8.054;2023-12-29T00:11:30;2.43;;;2.33;;
8952;SDS011;4511;50.890;8.054;2023-12-29T00:13:57;2.60;;;2.10;;
8952;SDS011;4511;50.890;8.054;2023-12-29T00:16:24;2.63;;;2.43;;
8952;SDS011;4511;50.890;8.054;2023-12-29T00:18:54;2.20;;;2.07;;
8952;SDS011;4511;50.890;8.054;2023-12-29T00:21:21;2.30;;;2.20;;
8952;SDS011;4511;50.890;8.054;2023-12-29T00:23:48;3.50;;;2.53;;
8952;SDS011;4511;50.890;8.054;2023-12-29T00:26:15;2.43;;;2.20;;
8952;SDS011;4511;50.890;8.054;2023-12-29T00:28:42;2.50;;;2.30;;
8952;SDS011;4511;50.890;8.054;2023-12-29T00:31:09;2.43;;;2.23;;
8952;SDS011;4511;50.890;8.054;2023-12-29T00:33:40;2.40;;;2.20;;
8952;SDS011;4511;50.890;8.054;2023-12-29T00:36:09;4.57;;;2.37;;
8952;SDS011;4511;50.890;8.054;2023-12-29T00:38:41;2.30;;;2.10;;
8952;SDS011;4511;50.890;8.054;2023-12-29T00:41:08;2.40;;;2.20;;
8952;SDS011;4511;50.890;8.054;2023-12-29T00:43:35;2.30;;;2.20;;
8952;SDS011;4511;50.890;8.054;2023-12-29T00:46:02;2.10;;;2.00;;
8952;SDS011;4511;50.890;8.054;2023-12-29T00:48:29;2.23;;;2.13;;
8952;SDS011;4511;50.890;8.054;2023-12-29T00:50:56;3.47;;;2.40;;
8952;SDS011;4511;50.890;8.054;2023-12-29T00:53:25;4.10;;;2.50;;
8952;SDS011;4511;50.890;8.054;2023-12-29T00:55:52;3.03;;;2.30;;
8952;SDS011;4511;50.890;8.054;2023-12-29T00:58:19;2.60;;;2.40;;
8952;SDS011;4511;50.890;8.054;2023-12-29T01:00:45;2.60;;;2.40;;
8952;SDS011;4511;50.890;8.054;2023-12-29T01:03:13;3.07;;;2.70;;
8952;SDS011;4511;50.890;8.054;2023-12-29T01:05:39;3.10;;;2.70;;
8952;SDS011;4511;50.890;8.054;2023-12-29T01:08:06;2.60;;;2.40;;
8952;SDS011;4511;50.890;8.054;2023-12-29T01:10:34;2.83;;;2.63;;
8952;SDS011;4511;50.890;8.054;2023-12-29T01:13:01;2.67;;;2.47;;
8952;SDS011;4511;50.890;8.054;2023-12-29T01:15:28;5.77;;;2.70;;
8952;SDS011;4511;50.890;8.054;2023-12-29T01:17:55;3.73;;;2.77;;
8952;SDS011;4511;50.890;8.054;2023-12-29T01:20:22;3.03;;;2.83;;
8952;SDS011;4511;50.890;8.054;2023-12-29T01:22:48;3.60;;;2.90;;
8952;SDS011;4511;50.890;8.054;2023-12-29T01:25:15;5.20;;;2.80;;
8952;SDS011;4511;50.890;8.054;2023-12-29T01:27:43;2.83;;;2.63;;
8952;SDS011;4511;50.890;8.054;2023-12-29T01:30:10;2.70;;;2.50;;
8952;SDS011;4511;50.890;8.054;2023-12-29T01:32:37;3.37;;;2.97;;
8952;SDS011;4511;50.890;8.054;2023-12-29T01:35:04;2.90;;;2.70;;
8952;SDS011;4511;50.890;8.054;2023-12-29T01:37:32;2.93;;;2.73;;
8952;SDS011;4511;50.890;8.054;2023-12-29T01:39:59;3.77;;;2.73;;
8952;SDS011;4511;50.890;8.054;2023-12-29T01:42:25;4.97;;;3.03;;
8952;SDS011;4511;50.890;8.054;2023-12-29T01:44:54;8.63;;;3.30;;
8952;SDS011;4511;50.890;8.054;2023-12-29T01:47:20;2.90;;;2.70;;
8952;SDS011;4511;50.890;8.054;2023-12-29T01:49:48;5.47;;;3.30;;
8952;SDS011;4511;50.890;8.054;2023-12-29T01:52:16;3.40;;;3.13;;
8952;SDS011;4511;50.890;8.054;2023-12-29T01:54:44;4.93;;;3.10;;
8952;SDS011;4511;50.890;8.054;2023-12-29T01:57:13;6.20;;;3.00;;
8952;SDS011;4511;50.890;8.054;2023-12-29T01:59:40;2.90;;;2.70;;
8952;SDS011;4511;50.890;8.054;2023-12-29T02:02:09;3.50;;;3.20;;
8952;SDS011;4511;50.890;8.054;2023-12-29T02:04:36;4.13;;;3.27;;
8952;SDS011;4511;50.890;8.054;2023-12-29T02:07:04;3.17;;;2.80;;
8952;SDS011;4511;50.890;8.054;2023-12-29T02:09:31;3.73;;;3.20;;
8952;SDS011;4511;50.890;8.054;2023-12-29T02:11:59;3.23;;;2.90;;
8952;SDS011;4511;50.890;8.054;2023-12-29T02:14:26;3.30;;;3.00;;
8952;SDS011;4511;50.890;8.054;2023-12-29T02:16:56;6.50;;;3.10;;
8952;SDS011;4511;50.890;8.054;2023-12-29T02:19:36;4.43;;;3.03;;
8952;SDS011;4511;50.890;8.054;2023-12-29T02:22:04;3.00;;;2.73;;
8952;SDS011;4511;50.890;8.054;2023-12-29T02:24:32;5.80;;;3.03;;
8952;SDS011;4511;50.890;8.054;2023-12-29T02:27:02;3.57;;;2.70;;
8952;SDS011;4511;50.890;8.054;2023-12-29T02:29:39;3.80;;;3.00;;
8952;SDS011;4511;50.890;8.054;2023-12-29T02:32:08;3.27;;;2.90;;
8952;SDS011;4511;50.890;8.054;2023-12-29T02:34:40;4.50;;;3.00;;
8952;SDS011;4511;50.890;8.054;2023-12-29T02:37:07;3.30;;;3.00;;
8952;SDS011;4511;50.890;8.054;2023-12-29T02:39:36;5.53;;;3.10;;
8952;SDS011;4511;50.890;8.054;2023-12-29T02:42:04;3.00;;;2.80;;
8952;SDS011;4511;50.890;8.054;2023-12-29T02:44:31;5.60;;;3.20;;
8952;SDS011;4511;50.890;8.054;2023-12-29T02:46:58;4.13;;;2.97;;
8952;SDS011;4511;50.890;8.054;2023-12-29T02:49:26;3.77;;;2.70;;
8952;SDS011;4511;50.890;8.054;2023-12-29T02:51:53;5.73;;;3.23;;
8952;SDS011;4511;50.890;8.054;2023-12-29T02:54:19;3.30;;;2.70;;
8952;SDS011;4511;50.890;8.054;2023-12-29T02:56:46;3.17;;;2.80;;
8952;SDS011;4511;50.890;8.054;2023-12-29T02:59:14;5.33;;;3.00;;
8952;SDS011;4511;50.890;8.054;2023-12-29T03:01:44;6.20;;;3.10;;
8952;SDS011;4511;50.890;8.054;2023-12-29T03:04:11;4.87;;;2.90;;
8952;SDS011;4511;50.890;8.054;2023-12-29T03:06:39;7.33;;;3.00;;
8952;SDS011;4511;50.890;8.054;2023-12-29T03:09:06;5.10;;;2.73;;
8952;SDS011;4511;50.890;8.054;2023-12-29T03:11:33;7.33;;;2.80;;
8952;SDS011;4511;50.890;8.054;2023-12-29T03:14:00;5.80;;;2.90;;
8952;SDS011;4511;50.890;8.054;2023-12-29T03:16:28;5.17;;;2.67;;
8952;SDS011;4511;50.890;8.054;2023-12-29T03:18:55;4.30;;;3.07;;
8952;SDS011;4511;50.890;8.054;2023-12-29T03:21:21;4.17;;;3.00;;
8952;SDS011;4511;50.890;8.054;2023-12-29T03:23:48;6.53;;;3.03;;
8952;SDS011;4511;50.890;8.054;2023-12-29T03:26:15;6.40;;;3.23;;
8952;SDS011;4511;50.890;8.054;2023-12-29T03:28:42;5.87;;;2.90;;
8952;SDS011;4511;50.890;8.054;2023-12-29T03:31:09;3.40;;;2.90;;
8952;SDS011;4511;50.890;8.054;2023-12-29T03:33:37;3.33;;;2.57;;
8952;SDS011;4511;50.890;8.054;2023-12-29T03:36:05;5.03;;;2.63;;
8952;SDS011;4511;50.890;8.054;2023-12-29T03:38:33;4.80;;;2.63;;
8952;SDS011;4511;50.890;8.054;2023-12-29T03:40:59;7.13;;;2.93;;
8952;SDS011;4511;50.890;8.054;2023-12-29T03:43:26;4.63;;;2.90;;
8952;SDS011;4511;50.890;8.054;2023-12-29T03:45:53;6.97;;;3.00;;
8952;SDS011;4511;50.890;8.054;2023-12-29T03:48:19;4.30;;;2.67;;
8952;SDS011;4511;50.890;8.054;2023-12-29T03:50:48;8.87;;;3.10;;
8952;SDS011;4511;50.890;8.054;2023-12-29T03:53:15;3.93;;;2.63;;
8952;SDS011;4511;50.890;8.054;2023-12-29T03:55:41;6.37;;;2.90;;
8952;SDS011;4511;50.890;8.054;2023-12-29T03:58:09;4.90;;;3.00;;
8952;SDS011;4511;50.890;8.054;2023-12-29T04:00:36;4.87;;;2.93;;
8952;SDS011;4511;50.890;8.054;2023-12-29T04:03:06;7.97;;;2.83;;
8952;SDS011;4511;50.890;8.054;2023-12-29T04:05:33;5.00;;;2.90;;
8952;SDS011;4511;50.890;8.054;2023-12-29T04:08:01;6.33;;;2.80;;
8952;SDS011;4511;50.890;8.054;2023-12-29T04:10:28;5.03;;;3.03;;
8952;SDS011;4511;50.890;8.054;2023-12-29T04:12:55;6.43;;;2.97;;
8952;SDS011;4511;50.890;8.054;2023-12-29T04:15:22;5.10;;;3.03;;
8952;SDS011;4511;50.890;8.054;2023-12-29T04:17:48;6.73;;;3.00;;
8952;SDS011;4511;50.890;8.054;2023-12-29T04:20:15;6.60;;;3.00;;
8952;SDS011;4511;50.890;8.054;2023-12-29T04:22:42;3.67;;;3.00;;
8952;SDS011;4511;50.890;8.054;2023-12-29T04:25:10;5.43;;;2.67;;
8952;SDS011;4511;50.890;8.054;2023-12-29T04:27:37;3.90;;;2.70;;
8952;SDS011;4511;50.890;8.054;2023-12-29T04:30:04;3.40;;;2.60;;
8952;SDS011;4511;50.890;8.054;2023-12-29T04:32:31;5.60;;;3.13;;
8952;SDS011;4511;50.890;8.054;2023-12-29T04:34:58;5.63;;;2.80;;
8952;SDS011;4511;50.890;8.054;2023-12-29T04:37:25;4.67;;;2.70;;
8952;SDS011;4511;50.890;8.054;2023-12-29T04:39:52;5.93;;;2.70;;
8952;SDS011;4511;50.890;8.054;2023-12-29T04:42:20;5.20;;;3.10;;
8952;SDS011;4511;50.890;8.054;2023-12-29T04:44:46;7.60;;;3.10;;
8952;SDS011;4511;50.890;8.054;2023-12-29T04:47:13;4.60;;;3.07;;
8952;SDS011;4511;50.890;8.054;2023-12-29T04:49:40;4.20;;;3.03;;
8952;SDS011;4511;50.890;8.054;2023-12-29T04:52:07;4.57;;;2.77;;
8952;SDS011;4511;50.890;8.054;2023-12-29T04:54:33;4.00;;;2.67;;
8952;SDS011;4511;50.890;8.054;2023-12-29T04:57:00;6.53;;;2.70;;
8952;SDS011;4511;50.890;8.054;2023-12-29T04:59:28;4.40;;;2.67;;
8952;SDS011;4511;50.890;8.054;2023-12-29T05:01:55;5.10;;;3.00;;
8952;SDS011;4511;50.890;8.054;2023-12-29T05:04:22;4.80;;;2.80;;
8952;SDS011;4511;50.890;8.054;2023-12-29T05:06:48;5.40;;;2.77;;
8952;SDS011;4511;50.890;8.054;2023-12-29T05:09:15;5.40;;;3.00;;
8952;SDS011;4511;50.890;8.054;2023-12-29T05:11:42;7.70;;;3.00;;
8952;SDS011;4511;50.890;8.054;2023-12-29T05:14:09;3.30;;;2.63;;
8952;SDS011;4511;50.890;8.054;2023-12-29T05:16:37;7.07;;;3.33;;
8952;SDS011;4511;50.890;8.054;2023-12-29T05:19:04;5.00;;;2.77;;
8952;SDS011;4511;50.890;8.054;2023-12-29T05:21:31;3.10;;;2.40;;
8952;SDS011;4511;50.890;8.054;2023-12-29T05:23:57;3.77;;;2.70;;
8952;SDS011;4511;50.890;8.054;2023-12-29T05:26:24;5.67;;;2.70;;
8952;SDS011;4511;50.890;8.054;2023-12-29T05:28:51;6.53;;;2.67;;
8952;SDS011;4511;50.890;8.054;2023-12-29T05:31:18;5.67;;;2.73;;
8952;SDS011;4511;50.890;8.054;2023-12-29T05:33:46;3.90;;;2.60;;
8952;SDS011;4511;50.890;8.054;2023-12-29T05:36:13;6.40;;;2.70;;
8952;SDS011;4511;50.890;8.054;2023-12-29T05:38:39;4.77;;;2.63;;
8952;SDS011;4511;50.890;8.054;2023-12-29T05:41:07;4.57;;;2.63;;
8952;SDS011;4511;50.890;8.054;2023-12-29T05:43:33;4.20;;;2.67;;
8952;SDS011;4511;50.890;8.054;2023-12-29T05:46:00;5.40;;;2.87;;
8952;SDS011;4511;50.890;8.054;2023-12-29T05:48:27;5.83;;;2.77;;
8952;SDS011;4511;50.890;8.054;2023-12-29T05:50:55;4.97;;;2.77;;
8952;SDS011;4511;50.890;8.054;2023-12-29T05:53:22;3.43;;;2.80;;
8952;SDS011;4511;50.890;8.054;2023-12-29T05:55:49;5.47;;;2.83;;
8952;SDS011;4511;50.890;8.054;2023-12-29T05:58:15;5.10;;;2.67;;
8952;SDS011;4511;50.890;8.054;2023-12-29T06:00:42;5.90;;;3.17;;
8952;SDS011;4511;50.890;8.054;2023-12-29T06:03:09;6.47;;;2.87;;
8952;SDS011;4511;50.890;8.054;2023-12-29T06:05:36;4.53;;;3.23;;
8952;SDS011;4511;50.890;8.054;2023-12-29T06:08:05;6.27;;;2.87;;
8952;SDS011;4511;50.890;8.054;2023-12-29T06:10:32;6.30;;;2.70;;
8952;SDS011;4511;50.890;8.054;2023-12-29T06:13:00;5.27;;;2.60;;
8952;SDS011;4511;50.890;8.054;2023-12-29T06:15:27;4.63;;;2.90;;
8952;SDS011;4511;50.890;8.054;2023-12-29T06:17:54;4.27;;;2.60;;
8952;SDS011;4511;50.890;8.054;2023-12-29T06:20:21;5.33;;;2.93;;
8952;SDS011;4511;50.890;8.054;2023-12-29T06:22:48;4.63;;;2.90;;
8952;SDS011;4511;50.890;8.054;2023-12-29T06:25:16;4.20;;;2.47;;
8952;SDS011;4511;50.890;8.054;2023-12-29T06:27:43;3.07;;;2.13;;
8952;SDS011;4511;50.890;8.054;2023-12-29T06:30:10;5.73;;;2.60;;
8952;SDS011;4511;50.890;8.054;2023-12-29T06:32:37;7.57;;;3.00;;
8952;SDS011;4511;50.890;8.054;2023-12-29T06:35:05;5.80;;;2.87;;
8952;SDS011;4511;50.890;8.054;2023-12-29T06:37:32;5.73;;;2.90;;
8952;SDS011;4511;50.890;8.054;2023-12-29T06:39:59;6.03;;;2.80;;
8952;SDS011;4511;50.890;8.054;2023-12-29T06:42:27;7.07;;;2.80;;
8952;SDS011;4511;50.890;8.054;2023-12-29T06:44:54;4.77;;;2.87;;
8952;SDS011;4511;50.890;8.054;2023-12-29T06:47:21;4.60;;;2.70;;
8952;SDS011;4511;50.890;8.054;2023-12-29T06:49:49;6.47;;;2.53;;
8952;SDS011;4511;50.890;8.054;2023-12-29T06:52:15;6.47;;;2.90;;
8952;SDS011;4511;50.890;8.054;2023-12-29T06:54:42;5.43;;;2.93;;
8952;SDS011;4511;50.890;8.054;2023-12-29T06:57:09;6.37;;;2.83;;
8952;SDS011;4511;50.890;8.054;2023-12-29T06:59:40;5.20;;;2.40;;
8952;SDS011;4511;50.890;8.054;2023-12-29T07:02:07;6.20;;;2.97;;
8952;SDS011;4511;50.890;8.054;2023-12-29T07:04:34;7.23;;;3.00;;
8952;SDS011;4511;50.890;8.054;2023-12-29T07:07:01;5.53;;;2.57;;
8952;SDS011;4511;50.890;8.054;2023-12-29T07:09:28;4.67;;;2.53;;
8952;SDS011;4511;50.890;8.054;2023-12-29T07:11:55;3.37;;;2.50;;
8952;SDS011;4511;50.890;8.054;2023-12-29T07:14:21;4.93;;;2.57;;
8952;SDS011;4511;50.890;8.054;2023-12-29T07:16:49;4.23;;;2.90;;
8952;SDS011;4511;50.890;8.054;2023-12-29T07:19:16;4.87;;;2.50;;
8952;SDS011;4511;50.890;8.054;2023-12-29T07:21:43;4.93;;;2.60;;
8952;SDS011;4511;50.890;8.054;2023-12-29T07:24:10;5.40;;;2.80;;
8952;SDS011;4511;50.890;8.054;2023-12-29T07:26:36;3.10;;;2.80;;
8952;SDS011;4511;50.890;8.054;2023-12-29T07:29:03;6.83;;;3.47;;
8952;SDS011;4511;50.890;8.054;2023-12-29T07:31:30;7.07;;;3.07;;
8952;SDS011;4511;50.890;8.054;2023-12-29T07:33:59;3.37;;;2.83;;
8952;SDS011;4511;50.890;8.054;2023-12-29T07:36:26;3.80;;;2.80;;
8952;SDS011;4511;50.890;8.054;2023-12-29T07:38:53;4.07;;;2.93;;
8952;SDS011;4511;50.890;8.054;2023-12-29T07:41:20;5.07;;;2.50;;
8952;SDS011;4511;50.890;8.054;2023-12-29T07:43:46;3.37;;;2.70;;
8952;SDS011;4511;50.890;8.054;2023-12-29T07:46:14;3.90;;;2.53;;
8952;SDS011;4511;50.890;8.054;2023-12-29T07:48:49;6.53;;;2.77;;
8952;SDS011;4511;50.890;8.054;2023-12-29T07:51:18;3.83;;;2.73;;
8952;SDS011;4511;50.890;8.054;2023-12-29T07:53:45;8.43;;;2.40;;
8952;SDS011;4511;50.890;8.054;2023-12-29T07:56:12;3.13;;;2.23;;
8952;SDS011;4511;50.890;8.054;2023-12-29T07:58:39;3.90;;;2.90;;
8952;SDS011;4511;50.890;8.054;2023-12-29T08:01:05;4.67;;;2.50;;
8952;SDS011;4511;50.890;8.054;2023-12-29T08:03:33;3.83;;;2.70;;
8952;SDS011;4511;50.890;8.054;2023-12-29T08:06:01;5.73;;;2.60;;
8952;SDS011;4511;50.890;8.054;2023-12-29T08:08:29;2.80;;;2.37;;
8952;SDS011;4511;50.890;8.054;2023-12-29T08:10:56;4.13;;;2.60;;
8952;SDS011;4511;50.890;8.054;2023-12-29T08:13:23;3.83;;;2.33;;
8952;SDS011;4511;50.890;8.054;2023-12-29T08:15:49;3.43;;;2.30;;
8952;SDS011;4511;50.890;8.054;2023-12-29T08:18:16;3.77;;;2.50;;
8952;SDS011;4511;50.890;8.054;2023-12-29T08:20:44;3.63;;;2.47;;
8952;SDS011;4511;50.890;8.054;2023-12-29T08:23:11;4.53;;;2.77;;
8952;SDS011;4511;50.890;8.054;2023-12-29T08:25:39;4.30;;;2.10;;
8952;SDS011;4511;50.890;8.054;2023-12-29T08:28:06;4.47;;;2.60;;
8952;SDS011;4511;50.890;8.054;2023-12-29T08:30:34;2.63;;;2.43;;
8952;SDS011;4511;50.890;8.054;2023-12-29T08:33:02;3.30;;;2.50;;
8952;SDS011;4511;50.890;8.054;2023-12-29T08:35:29;2.93;;;2.30;;
8952;SDS011;4511;50.890;8.054;2023-12-29T08:37:55;4.87;;;2.30;;
8952;SDS011;4511;50.890;8.054;2023-12-29T08:40:22;3.67;;;2.20;;
8952;SDS011;4511;50.890;8.054;2023-12-29T08:42:50;4.20;;;2.50;;
8952;SDS011;4511;50.890;8.054;2023-12-29T08:45:18;2.83;;;2.40;;
8952;SDS011;4511;50.890;8.054;2023-12-29T08:47:44;2.50;;;2.30;;
8952;SDS011;4511;50.890;8.054;2023-12-29T08:50:11;4.53;;;2.20;;
8952;SDS011;4511;50.890;8.054;2023-12-29T08:52:39;4.27;;;2.47;;
8952;SDS011;4511;50.890;8.054;2023-12-29T08:55:06;2.97;;;2.10;;
8952;SDS011;4511;50.890;8.054;2023-12-29T08:57:35;5.27;;;2.60;;
8952;SDS011;4511;50.890;8.054;2023-12-29T09:00:03;3.17;;;2.40;;
8952;SDS011;4511;50.890;8.054;2023-12-29T09:02:31;2.33;;;2.20;;
8952;SDS011;4511;50.890;8.054;2023-12-29T09:04:57;3.20;;;2.27;;
8952;SDS011;4511;50.890;8.054;2023-12-29T09:07:24;3.20;;;2.20;;
8952;SDS011;4511;50.890;8.054;2023-12-29T09:09:53;3.87;;;2.47;;
8952;SDS011;4511;50.890;8.054;2023-12-29T09:12:19;3.80;;;2.30;;
8952;SDS011;4511;50.890;8.054;2023-12-29T09:14:46;6.00;;;2.63;;
8952;SDS011;4511;50.890;8.054;2023-12-29T09:17:14;4.23;;;2.23;;
8952;SDS011;4511;50.890;8.054;2023-12-29T09:19:41;6.17;;;2.20;;
8952;SDS011;4511;50.890;8.054;2023-12-29T09:22:08;3.13;;;2.30;;
8952;SDS011;4511;50.890;8.054;2023-12-29T09:24:35;3.40;;;2.37;;
8952;SDS011;4511;50.890;8.054;2023-12-29T09:27:02;3.83;;;2.40;;
8952;SDS011;4511;50.890;8.054;2023-12-29T09:29:29;5.03;;;2.40;;
8952;SDS011;4511;50.890;8.054;2023-12-29T09:31:56;3.93;;;2.33;;
8952;SDS011;4511;50.890;8.054;2023-12-29T09:34:24;4.63;;;2.07;;
8952;SDS011;4511;50.890;8.054;2023-12-29T09:36:50;4.03;;;2.10;;
8952;SDS011;4511;50.890;8.054;2023-12-29T09:39:17;2.30;;;2.10;;
8952;SDS011;4511;50.890;8.054;2023-12-29T09:41:45;3.90;;;2.23;;
8952;SDS011;4511;50.890;8.054;2023-12-29T09:44:13;5.60;;;2.53;;
8952;SDS011;4511;50.890;8.054;2023-12-29T09:46:41;3.23;;;2.10;;
8952;SDS011;4511;50.890;8.054;2023-12-29T09:49:08;2.30;;;2.10;;
8952;SDS011;4511;50.890;8.054;2023-12-29T09:51:38;3.13;;;1.90;;
8952;SDS011;4511;50.890;8.054;2023-12-29T09:54:06;4.60;;;2.17;;
8952;SDS011;4511;50.890;8.054;2023-12-29T09:56:35;4.03;;;1.93;;
8952;SDS011;4511;50.890;8.054;2023-12-29T09:59:03;3.50;;;2.10;;
8952;SDS011;4511;50.890;8.054;2023-12-29T10:01:30;5.80;;;2.40;;
8952;SDS011;4511;50.890;8.054;2023-12-29T10:03:58;2.90;;;1.83;;
8952;SDS011;4511;50.890;8.054;2023-12-29T10:06:25;2.93;;;2.17;;
8952;SDS011;4511;50.890;8.054;2023-12-29T10:08:54;3.57;;;2.30;;
8952;SDS011;4511;50.890;8.054;2023-12-29T10:11:23;2.23;;;1.93;;
8952;SDS011;4511;50.890;8.054;2023-12-29T10:13:52;3.00;;;2.10;;
8952;SDS011;4511;50.890;8.054;2023-12-29T10:16:24;2.30;;;2.10;;
8952;SDS011;4511;50.890;8.054;2023-12-29T10:18:57;3.07;;;2.10;;
8952;SDS011;4511;50.890;8.054;2023-12-29T10:21:34;2.47;;;2.00;;
8952;SDS011;4511;50.890;8.054;2023-12-29T10:24:08;2.53;;;2.30;;
8952;SDS011;4511;50.890;8.054;2023-12-29T10:26:39;3.23;;;2.40;;
8952;SDS011;4511;50.890;8.054;2023-12-29T10:29:08;2.63;;;2.10;;
8952;SDS011;4511;50.890;8.054;2023-12-29T10:31:36;2.50;;;2.10;;
8952;SDS011;4511;50.890;8.054;2023-12-29T10:34:19;4.20;;;2.20;;
8952;SDS011;4511;50.890;8.054;2023-12-29T10:36:53;4.67;;;2.20;;
8952;SDS011;4511;50.890;8.054;2023-12-29T10:39:21;3.50;;;2.43;;
8952;SDS011;4511;50.890;8.054;2023-12-29T10:41:48;4.63;;;2.13;;
8952;SDS011;4511;50.890;8.054;2023-12-29T10:44:15;2.33;;;2.13;;
8952;SDS011;4511;50.890;8.054;2023-12-29T10:46:42;3.27;;;2.20;;
8952;SDS011;4511;50.890;8.054;2023-12-29T10:49:11;3.43;;;2.30;;
8952;SDS011;4511;50.890;8.054;2023-12-29T10:51:39;3.50;;;2.40;;
8952;SDS011;4511;50.890;8.054;2023-12-29T10:54:06;3.10;;;2.80;;
8952;SDS011;4511;50.890;8.054;2023-12-29T10:56:34;2.60;;;2.20;;
8952;SDS011;4511;50.890;8.054;2023-12-29T10:59:01;3.10;;;2.13;;
8952;SDS011;4511;50.890;8.054;2023-12-29T11:01:30;2.37;;;2.20;;
8952;SDS011;4511;50.890;8.054;2023-12-29T11:03:58;4.83;;;2.17;;
8952;SDS011;4511;50.890;8.054;2023-12-29T11:06:26;4.00;;;2.23;;
8952;SDS011;4511;50.890;8.054;2023-12-29T11:08:53;2.43;;;2.23;;
8952;SDS011;4511;50.890;8.054;2023-12-29T11:11:20;5.37;;;2.30;;
8952;SDS011;4511;50.890;8.054;2023-12-29T11:13:49;3.50;;;2.53;;
8952;SDS011;4511;50.890;8.054;2023-12-29T11:16:16;4.33;;;2.53;;
8952;SDS011;4511;50.890;8.054;2023-12-29T11:18:46;3.80;;;2.50;;
8952;SDS011;4511;50.890;8.054;2023-12-29T11:21:15;2.87;;;2.20;;
8952;SDS011;4511;50.890;8.054;2023-12-29T11:23:43;4.53;;;2.57;;
8952;SDS011;4511;50.890;8.054;2023-12-29T11:26:10;3.50;;;2.40;;
8952;SDS011;4511;50.890;8.054;2023-12-29T11:28:37;5.13;;;2.40;;
8952;SDS011;4511;50.890;8.054;2023-12-29T11:31:06;3.60;;;2.40;;
8952;SDS011;4511;50.890;8.054;2023-12-29T11:33:34;6.13;;;2.60;;
8952;SDS011;4511;50.890;8.054;2023-12-29T11:36:08;4.33;;;2.50;;
8952;SDS011;4511;50.890;8.054;2023-12-29T11:38:41;4.03;;;2.30;;
8952;SDS011;4511;50.890;8.054;2023-12-29T11:41:16;4.53;;;2.30;;
8952;SDS011;4511;50.890;8.054;2023-12-29T11:43:55;4.90;;;2.33;;
8952;SDS011;4511;50.890;8.054;2023-12-29T11:46:34;3.53;;;2.17;;
8952;SDS011;4511;50.890;8.054;2023-12-29T11:49:01;2.57;;;2.20;;
8952;SDS011;4511;50.890;8.054;2023-12-29T11:51:30;2.57;;;2.20;;
8952;SDS011;4511;50.890;8.054;2023-12-29T11:53:58;4.87;;;2.10;;
8952;SDS011;4511;50.890;8.054;2023-12-29T11:56:35;4.73;;;2.20;;
8952;SDS011;4511;50.890;8.054;2023-12-29T11:59:12;3.67;;;2.40;;
8952;SDS011;4511;50.890;8.054;2023-12-29T12:01:40;4.23;;;2.40;;
8952;SDS011;4511;50.890;8.054;2023-12-29T12:04:33;2.83;;;2.07;;
8952;SDS011;4511;50.890;8.054;2023-12-29T12:07:15;3.50;;;2.30;;
8952;SDS011;4511;50.890;8.054;2023-12-29T12:09:43;2.00;;;1.90;;
8952;SDS011;4511;50.890;8.054;2023-12-29T12:12:14;2.60;;;2.20;;
8952;SDS011;4511;50.890;8.054;2023-12-29T12:15:02;3.43;;;2.33;;
8952;SDS011;4511;50.890;8.054;2023-12-29T12:17:31;2.43;;;2.23;;
8952;SDS011;4511;50.890;8.054;2023-12-29T12:19:59;2.50;;;2.20;;
8952;SDS011;4511;50.890;8.054;2023-12-29T12:22:29;5.33;;;2.20;;
8952;SDS011;4511;50.890;8.054;2023-12-29T12:24:58;2.97;;;1.87;;
8952;SDS011;4511;50.890;8.054;2023-12-29T12:27:26;3.33;;;2.00;;
8952;SDS011;4511;50.890;8.054;2023-12-29T12:29:53;2.40;;;2.30;;
8952;SDS011;4511;50.890;8.054;2023-12-29T12:32:22;2.30;;;2.20;;
8952;SDS011;4511;50.890;8.054;2023-12-29T12:34:51;2.57;;;1.90;;
8952;SDS011;4511;50.890;8.054;2023-12-29T12:37:18;3.37;;;2.07;;
8952;SDS011;4511;50.890;8.054;2023-12-29T12:39:46;2.17;;;1.97;;
8952;SDS011;4511;50.890;8.054;2023-12-29T12:42:13;3.57;;;2.00;;
8952;SDS011;4511;50.890;8.054;2023-12-29T12:44:40;3.10;;;2.17;;
8952;SDS011;4511;50.890;8.054;2023-12-29T12:47:15;2.53;;;1.97;;
8952;SDS011;4511;50.890;8.054;2023-12-29T12:49:44;2.20;;;2.10;;
8952;SDS011;4511;50.890;8.054;2023-12-29T12:52:12;2.10;;;1.90;;
8952;SDS011;4511;50.890;8.054;2023-12-29T12:54:39;2.50;;;1.83;;
8952;SDS011;4511;50.890;8.054;2023-12-29T12:57:06;1.90;;;1.80;;
8952;SDS011;4511;50.890;8.054;2023-12-29T12:59:33;2.10;;;2.00;;
8952;SDS011;4511;50.890;8.054;2023-12-29T13:02:01;3.87;;;1.90;;
8952;SDS011;4511;50.890;8.054;2023-12-29T13:04:30;2.00;;;1.90;;
8952;SDS011;4511;50.890;8.054;2023-12-29T13:06:57;1.80;;;1.70;;
8952;SDS011;4511;50.890;8.054;2023-12-29T13:09:26;2.97;;;1.90;;
8952;SDS011;4511;50.890;8.054;2023-12-29T13:12:06;2.20;;;2.10;;
8952;SDS011;4511;50.890;8.054;2023-12-29T13:14:34;2.03;;;1.90;;
8952;SDS011;4511;50.890;8.054;2023-12-29T13:17:04;2.10;;;1.90;;
8952;SDS011;4511;50.890;8.054;2023-12-29T13:19:32;2.33;;;1.90;;
8952;SDS011;4511;50.890;8.054;2023-12-29T13:21:59;1.90;;;1.80;;
8952;SDS011;4511;50.890;8.054;2023-12-29T13:24:27;2.20;;;2.07;;
8952;SDS011;4511;50.890;8.054;2023-12-29T13:26:55;2.07;;;1.93;;
8952;SDS011;4511;50.890;8.054;2023-12-29T13:29:27;2.20;;;2.00;;
8952;SDS011;4511;50.890;8.054;2023-12-29T13:31:56;3.03;;;2.30;;
8952;SDS011;4511;50.890;8.054;2023-12-29T13:34:27;1.93;;;1.83;;
8952;SDS011;4511;50.890;8.054;2023-12-29T13:37:01;1.97;;;1.83;;
8952;SDS011;4511;50.890;8.054;2023-12-29T13:39:37;2.20;;;2.00;;
8952;SDS011;4511;50.890;8.054;2023-12-29T13:42:09;3.13;;;1.93;;
8952;SDS011;4511;50.890;8.054;2023-12-29T13:44:38;2.07;;;1.90;;
8952;SDS011;4511;50.890;8.054;2023-12-29T13:47:08;2.10;;;1.90;;
8952;SDS011;4511;50.890;8.054;2023-12-29T13:49:36;2.00;;;1.90;;
8952;SDS011;4511;50.890;8.054;2023-12-29T13:52:04;2.20;;;1.90;;
8952;SDS011;4511;50.890;8.054;2023-12-29T13:54:41;3.40;;;1.97;;
8952;SDS011;4511;50.890;8.054;2023-12-29T13:57:08;2.33;;;1.80;;
8952;SDS011;4511;50.890;8.054;2023-12-29T13:59:35;3.23;;;2.07;;
8952;SDS011;4511;50.890;8.054;2023-12-29T14:02:04;2.20;;;2.10;;
8952;SDS011;4511;50.890;8.054;2023-12-29T14:04:46;2.07;;;1.90;;
8952;SDS011;4511;50.890;8.054;2023-12-29T14:07:13;2.00;;;1.90;;
8952;SDS011;4511;50.890;8.054;2023-12-29T14:09:42;1.80;;;1.70;;
8952;SDS011;4511;50.890;8.054;2023-12-29T14:12:09;1.90;;;1.80;;
8952;SDS011;4511;50.890;8.054;2023-12-29T14:14:36;2.00;;;1.90;;
8952;SDS011;4511;50.890;8.054;2023-12-29T14:17:02;1.83;;;1.80;;
8952;SDS011;4511;50.890;8.054;2023-12-29T14:19:34;1.87;;;1.77;;
8952;SDS011;4511;50.890;8.054;2023-12-29T14:22:01;1.90;;;1.80;;
8952;SDS011;4511;50.890;8.054;2023-12-29T14:24:28;1.60;;;1.60;;
8952;SDS011;4511;50.890;8.054;2023-12-29T14:26:56;1.90;;;1.80;;
8952;SDS011;4511;50.890;8.054;2023-12-29T14:29:23;2.10;;;1.90;;
8952;SDS011;4511;50.890;8.054;2023-12-29T14:31:51;2.03;;;1.80;;
8952;SDS011;4511;50.890;8.054;2023-12-29T14:34:18;2.07;;;1.90;;
8952;SDS011;4511;50.890;8.054;2023-12-29T14:36:45;2.17;;;2.00;;
8952;SDS011;4511;50.890;8.054;2023-12-29T14:39:12;1.93;;;1.83;;
8952;SDS011;4511;50.890;8.054;2023-12-29T14:41:40;2.37;;;2.17;;
8952;SDS011;4511;50.890;8.054;2023-12-29T14:44:09;1.77;;;1.67;;
8952;SDS011;4511;50.890;8.054;2023-12-29T14:46:36;2.20;;;1.97;;
8952;SDS011;4511;50.890;8.054;2023-12-29T14:49:03;2.17;;;1.97;;
8952;SDS011;4511;50.890;8.054;2023-12-29T14:51:30;2.10;;;1.90;;
8952;SDS011;4511;50.890;8.054;2023-12-29T14:53:57;2.07;;;1.97;;
8952;SDS011;4511;50.890;8.054;2023-12-29T14:56:24;2.73;;;1.90;;
8952;SDS011;4511;50.890;8.054;2023-12-29T14:58:51;2.17;;;2.00;;
8952;SDS011;4511;50.890;8.054;2023-12-29T15:01:19;2.13;;;2.03;;
8952;SDS011;4511;50.890;8.054;2023-12-29T15:03:45;2.30;;;2.10;;
8952;SDS011;4511;50.890;8.054;2023-12-29T15:06:12;2.40;;;2.20;;
8952;SDS011;4511;50.890;8.054;2023-12-29T15:08:39;2.40;;;2.30;;
8952;SDS011;4511;50.890;8.054;2023-12-29T15:11:06;2.10;;;2.00;;
8952;SDS011;4511;50.890;8.054;2023-12-29T15:13:33;2.20;;;2.00;;
8952;SDS011;4511;50.890;8.054;2023-12-29T15:16:01;2.40;;;2.20;;
8952;SDS011;4511;50.890;8.054;2023-12-29T15:18:30;3.57;;;2.13;;
8952;SDS011;4511;50.890;8.054;2023-12-29T15:20:57;3.50;;;2.20;;